Quartzsite, Arizona
Current Conditions -  °F | °C
As of 8:52 AM on Thursday 27 Nov 2014 (Local Time) from KBLH Reporting Station
Clear Clear  
Wind Chill: 13°   Ceiling: Unl
Heat Index: 13°   Visibility: 10mi
Dew Point: -9°   Wind: 3mph
Humidity: 21%   Direction: 190°S
Pressure: 30.21"   Gusts: NA
Location:  33.67°N, 114.22°W
Report Text: KBLH 271552Z AUTO 19003KT 10SM CLR 13/M09 A3021 RMK AO2 SLP228 T01331089
Loading
Personal Weather Stations






























Interactive Weather Map New forecast layout! Learn more

10-Day Weather Forecast

Advertisements
Track Severe Weather on mobile